sensor_id;sensor_type;location;lat;lon;timestamp;temperature;humidity
8939;DHT22;4504;48.810;9.172;2023-04-01T00:01:06;9.90;99.90
8939;DHT22;4504;48.810;9.172;2023-04-01T00:03:34;9.90;99.90
8939;DHT22;4504;48.810;9.172;2023-04-01T00:06:01;9.90;99.90
8939;DHT22;4504;48.810;9.172;2023-04-01T00:08:29;9.80;99.90
8939;DHT22;4504;48.810;9.172;2023-04-01T00:10:56;9.80;99.90
8939;DHT22;4504;48.810;9.172;2023-04-01T00:13:25;9.80;99.90
8939;DHT22;4504;48.810;9.172;2023-04-01T00:15:53;9.80;99.90
8939;DHT22;4504;48.810;9.172;2023-04-01T00:18:20;10.00;99.90
8939;DHT22;4504;48.810;9.172;2023-04-01T00:20:48;9.80;99.90
8939;DHT22;4504;48.810;9.172;2023-04-01T00:23:16;9.90;99.90
8939;DHT22;4504;48.810;9.172;2023-04-01T00:25:44;9.90;99.90
8939;DHT22;4504;48.810;9.172;2023-04-01T00:28:13;9.90;99.90
8939;DHT22;4504;48.810;9.172;2023-04-01T00:30:42;9.90;99.90
8939;DHT22;4504;48.810;9.172;2023-04-01T00:33:09;9.90;99.90
8939;DHT22;4504;48.810;9.172;2023-04-01T00:35:36;9.90;99.90
8939;DHT22;4504;48.810;9.172;2023-04-01T00:38:03;10.00;99.90
8939;DHT22;4504;48.810;9.172;2023-04-01T00:40:34;10.00;99.90
8939;DHT22;4504;48.810;9.172;2023-04-01T00:43:03;9.90;99.90
8939;DHT22;4504;48.810;9.172;2023-04-01T00:45:33;9.90;99.90
8939;DHT22;4504;48.810;9.172;2023-04-01T00:48:05;9.90;99.90
8939;DHT22;4504;48.810;9.172;2023-04-01T00:50:34;9.90;99.90
8939;DHT22;4504;48.810;9.172;2023-04-01T00:53:03;9.90;99.90
8939;DHT22;4504;48.810;9.172;2023-04-01T00:55:33;9.90;99.90
8939;DHT22;4504;48.810;9.172;2023-04-01T00:58:03;9.90;99.90
8939;DHT22;4504;48.810;9.172;2023-04-01T01:00:32;9.90;99.90
8939;DHT22;4504;48.810;9.172;2023-04-01T01:02:59;9.90;99.90
8939;DHT22;4504;48.810;9.172;2023-04-01T01:05:44;9.90;99.90
8939;DHT22;4504;48.810;9.172;2023-04-01T01:08:24;9.90;99.90
8939;DHT22;4504;48.810;9.172;2023-04-01T01:10:56;9.90;99.90
8939;DHT22;4504;48.810;9.172;2023-04-01T01:13:26;9.90;99.90
8939;DHT22;4504;48.810;9.172;2023-04-01T01:15:58;9.90;99.90
8939;DHT22;4504;48.810;9.172;2023-04-01T01:18:32;9.90;99.90
8939;DHT22;4504;48.810;9.172;2023-04-01T01:21:21;9.90;99.90
8939;DHT22;4504;48.810;9.172;2023-04-01T01:24:17;9.90;99.90
8939;DHT22;4504;48.810;9.172;2023-04-01T01:26:55;9.90;99.90
8939;DHT22;4504;48.810;9.172;2023-04-01T01:29:45;9.90;99.90
8939;DHT22;4504;48.810;9.172;2023-04-01T01:32:22;9.90;99.90
8939;DHT22;4504;48.810;9.172;2023-04-01T01:34:54;9.90;99.90
8939;DHT22;4504;48.810;9.172;2023-04-01T01:37:27;9.90;99.90
8939;DHT22;4504;48.810;9.172;2023-04-01T01:39:59;9.80;99.90
8939;DHT22;4504;48.810;9.172;2023-04-01T01:42:31;9.90;99.90
8939;DHT22;4504;48.810;9.172;2023-04-01T01:45:01;9.80;99.90
8939;DHT22;4504;48.810;9.172;2023-04-01T01:47:29;9.80;99.90
8939;DHT22;4504;48.810;9.172;2023-04-01T01:49:57;9.80;99.90
8939;DHT22;4504;48.810;9.172;2023-04-01T01:52:27;9.80;99.90
8939;DHT22;4504;48.810;9.172;2023-04-01T01:54:57;9.70;99.90
8939;DHT22;4504;48.810;9.172;2023-04-01T01:57:33;9.60;99.90
8939;DHT22;4504;48.810;9.172;2023-04-01T02:00:06;9.60;99.90
8939;DHT22;4504;48.810;9.172;2023-04-01T02:02:39;9.60;99.90
8939;DHT22;4504;48.810;9.172;2023-04-01T02:05:08;9.60;99.90
8939;DHT22;4504;48.810;9.172;2023-04-01T02:07:39;9.50;99.90
8939;DHT22;4504;48.810;9.172;2023-04-01T02:10:06;9.40;99.90
8939;DHT22;4504;48.810;9.172;2023-04-01T02:12:35;9.40;99.90
8939;DHT22;4504;48.810;9.172;2023-04-01T02:15:07;9.50;99.90
8939;DHT22;4504;48.810;9.172;2023-04-01T02:17:40;9.40;99.90
8939;DHT22;4504;48.810;9.172;2023-04-01T02:20:12;9.40;99.90
8939;DHT22;4504;48.810;9.172;2023-04-01T02:22:46;9.50;99.90
8939;DHT22;4504;48.810;9.172;2023-04-01T02:25:17;9.50;99.90
8939;DHT22;4504;48.810;9.172;2023-04-01T02:27:45;9.50;99.90
8939;DHT22;4504;48.810;9.172;2023-04-01T02:30:14;9.50;99.90
8939;DHT22;4504;48.810;9.172;2023-04-01T02:32:41;9.40;99.90
8939;DHT22;4504;48.810;9.172;2023-04-01T02:35:10;9.40;99.90
8939;DHT22;4504;48.810;9.172;2023-04-01T02:37:37;9.40;99.90
8939;DHT22;4504;48.810;9.172;2023-04-01T02:40:07;9.40;99.90
8939;DHT22;4504;48.810;9.172;2023-04-01T02:42:35;9.40;99.90
8939;DHT22;4504;48.810;9.172;2023-04-01T02:45:04;9.40;99.90
8939;DHT22;4504;48.810;9.172;2023-04-01T02:47:32;9.40;99.90
8939;DHT22;4504;48.810;9.172;2023-04-01T02:49:59;9.40;99.90
8939;DHT22;4504;48.810;9.172;2023-04-01T02:52:26;9.40;99.90
8939;DHT22;4504;48.810;9.172;2023-04-01T02:54:55;9.40;99.90
8939;DHT22;4504;48.810;9.172;2023-04-01T02:57:24;9.40;99.90
8939;DHT22;4504;48.810;9.172;2023-04-01T02:59:51;9.40;99.90
8939;DHT22;4504;48.810;9.172;2023-04-01T03:02:18;9.40;99.90
8939;DHT22;4504;48.810;9.172;2023-04-01T03:04:45;9.30;99.90
8939;DHT22;4504;48.810;9.172;2023-04-01T03:07:12;9.40;99.90
8939;DHT22;4504;48.810;9.172;2023-04-01T03:09:39;9.40;99.90
8939;DHT22;4504;48.810;9.172;2023-04-01T03:12:07;9.40;99.90
8939;DHT22;4504;48.810;9.172;2023-04-01T03:14:45;9.50;99.90
8939;DHT22;4504;48.810;9.172;2023-04-01T03:17:12;9.40;99.90
8939;DHT22;4504;48.810;9.172;2023-04-01T03:19:39;9.40;99.90
8939;DHT22;4504;48.810;9.172;2023-04-01T03:22:08;9.40;99.90
8939;DHT22;4504;48.810;9.172;2023-04-01T03:24:36;9.30;99.90
8939;DHT22;4504;48.810;9.172;2023-04-01T03:27:03;9.30;99.90
8939;DHT22;4504;48.810;9.172;2023-04-01T03:29:30;9.50;99.90
8939;DHT22;4504;48.810;9.172;2023-04-01T03:31:58;9.30;99.90
8939;DHT22;4504;48.810;9.172;2023-04-01T03:34:26;9.40;99.90
8939;DHT22;4504;48.810;9.172;2023-04-01T03:36:53;9.30;99.90
8939;DHT22;4504;48.810;9.172;2023-04-01T03:39:20;9.30;99.90
8939;DHT22;4504;48.810;9.172;2023-04-01T03:41:48;9.30;99.90
8939;DHT22;4504;48.810;9.172;2023-04-01T03:44:15;9.30;99.90
8939;DHT22;4504;48.810;9.172;2023-04-01T03:46:43;9.30;99.90
8939;DHT22;4504;48.810;9.172;2023-04-01T03:49:11;9.30;99.90
8939;DHT22;4504;48.810;9.172;2023-04-01T03:51:39;9.30;99.90
8939;DHT22;4504;48.810;9.172;2023-04-01T03:54:06;9.40;99.90
8939;DHT22;4504;48.810;9.172;2023-04-01T03:56:33;9.40;99.90
8939;DHT22;4504;48.810;9.172;2023-04-01T03:59:02;9.30;99.90
8939;DHT22;4504;48.810;9.172;2023-04-01T04:01:30;9.30;99.90
8939;DHT22;4504;48.810;9.172;2023-04-01T04:03:57;9.30;99.90
8939;DHT22;4504;48.810;9.172;2023-04-01T04:06:26;9.30;99.90
8939;DHT22;4504;48.810;9.172;2023-04-01T04:08:53;9.30;99.90
8939;DHT22;4504;48.810;9.172;2023-04-01T04:11:21;9.30;99.90
8939;DHT22;4504;48.810;9.172;2023-04-01T04:13:51;9.30;99.90
8939;DHT22;4504;48.810;9.172;2023-04-01T04:16:18;9.20;99.90
8939;DHT22;4504;48.810;9.172;2023-04-01T04:18:50;9.20;99.90
8939;DHT22;4504;48.810;9.172;2023-04-01T04:21:17;9.30;99.90
8939;DHT22;4504;48.810;9.172;2023-04-01T04:23:46;9.30;99.90
8939;DHT22;4504;48.810;9.172;2023-04-01T04:26:15;9.30;99.90
8939;DHT22;4504;48.810;9.172;2023-04-01T04:28:48;9.30;99.90
8939;DHT22;4504;48.810;9.172;2023-04-01T04:31:18;9.30;99.90
8939;DHT22;4504;48.810;9.172;2023-04-01T04:33:46;9.30;99.90
8939;DHT22;4504;48.810;9.172;2023-04-01T04:36:14;9.30;99.90
8939;DHT22;4504;48.810;9.172;2023-04-01T04:38:42;9.30;99.90
8939;DHT22;4504;48.810;9.172;2023-04-01T04:41:11;9.30;99.90
8939;DHT22;4504;48.810;9.172;2023-04-01T04:43:41;9.30;99.90
8939;DHT22;4504;48.810;9.172;2023-04-01T04:46:09;9.40;99.90
8939;DHT22;4504;48.810;9.172;2023-04-01T04:48:36;9.40;99.90
8939;DHT22;4504;48.810;9.172;2023-04-01T04:51:03;9.20;99.90
8939;DHT22;4504;48.810;9.172;2023-04-01T04:53:30;9.20;99.90
8939;DHT22;4504;48.810;9.172;2023-04-01T04:55:57;9.20;99.90
8939;DHT22;4504;48.810;9.172;2023-04-01T04:58:52;9.10;99.90
8939;DHT22;4504;48.810;9.172;2023-04-01T05:01:23;9.10;99.90
8939;DHT22;4504;48.810;9.172;2023-04-01T05:03:51;9.20;99.90
8939;DHT22;4504;48.810;9.172;2023-04-01T05:06:18;9.10;99.90
8939;DHT22;4504;48.810;9.172;2023-04-01T05:08:45;9.10;99.90
8939;DHT22;4504;48.810;9.172;2023-04-01T05:11:14;9.00;99.90
8939;DHT22;4504;48.810;9.172;2023-04-01T05:13:43;9.10;99.90
8939;DHT22;4504;48.810;9.172;2023-04-01T05:16:15;9.00;99.90
8939;DHT22;4504;48.810;9.172;2023-04-01T05:18:42;9.00;99.90
8939;DHT22;4504;48.810;9.172;2023-04-01T05:21:11;9.00;99.90
8939;DHT22;4504;48.810;9.172;2023-04-01T05:23:39;9.00;99.90
8939;DHT22;4504;48.810;9.172;2023-04-01T05:26:07;9.10;99.90
8939;DHT22;4504;48.810;9.172;2023-04-01T05:28:34;8.90;99.90
8939;DHT22;4504;48.810;9.172;2023-04-01T05:31:02;8.90;99.90
8939;DHT22;4504;48.810;9.172;2023-04-01T05:33:42;9.00;99.90
8939;DHT22;4504;48.810;9.172;2023-04-01T05:36:10;8.90;99.90
8939;DHT22;4504;48.810;9.172;2023-04-01T05:38:38;8.90;99.90
8939;DHT22;4504;48.810;9.172;2023-04-01T05:41:08;8.90;99.90
8939;DHT22;4504;48.810;9.172;2023-04-01T05:43:39;8.90;99.90
8939;DHT22;4504;48.810;9.172;2023-04-01T05:46:42;9.00;99.90
8939;DHT22;4504;48.810;9.172;2023-04-01T05:49:19;9.00;99.90
8939;DHT22;4504;48.810;9.172;2023-04-01T05:51:46;9.10;99.90
8939;DHT22;4504;48.810;9.172;2023-04-01T05:54:14;9.10;99.90
8939;DHT22;4504;48.810;9.172;2023-04-01T05:56:42;9.20;99.90
8939;DHT22;4504;48.810;9.172;2023-04-01T05:59:10;9.20;99.90
8939;DHT22;4504;48.810;9.172;2023-04-01T06:01:37;9.30;99.90
8939;DHT22;4504;48.810;9.172;2023-04-01T06:04:04;9.40;99.90
8939;DHT22;4504;48.810;9.172;2023-04-01T06:06:34;9.40;99.90
8939;DHT22;4504;48.810;9.172;2023-04-01T06:09:13;9.50;99.90
8939;DHT22;4504;48.810;9.172;2023-04-01T06:11:56;9.50;99.90
8939;DHT22;4504;48.810;9.172;2023-04-01T06:14:32;9.50;99.90
8939;DHT22;4504;48.810;9.172;2023-04-01T06:17:18;9.50;99.90
8939;DHT22;4504;48.810;9.172;2023-04-01T06:19:51;9.60;99.90
8939;DHT22;4504;48.810;9.172;2023-04-01T06:22:40;9.60;99.90
8939;DHT22;4504;48.810;9.172;2023-04-01T06:25:36;9.60;99.90
8939;DHT22;4504;48.810;9.172;2023-04-01T06:28:43;9.70;99.90
8939;DHT22;4504;48.810;9.172;2023-04-01T06:31:21;9.70;99.90
8939;DHT22;4504;48.810;9.172;2023-04-01T06:34:02;9.70;99.90
8939;DHT22;4504;48.810;9.172;2023-04-01T06:36:52;9.80;99.90
8939;DHT22;4504;48.810;9.172;2023-04-01T06:39:42;9.80;99.90
8939;DHT22;4504;48.810;9.172;2023-04-01T06:42:20;9.80;99.90
8939;DHT22;4504;48.810;9.172;2023-04-01T06:45:01;9.90;99.90
8939;DHT22;4504;48.810;9.172;2023-04-01T06:48:02;9.80;99.90
8939;DHT22;4504;48.810;9.172;2023-04-01T06:51:02;9.80;99.90
8939;DHT22;4504;48.810;9.172;2023-04-01T06:53:56;9.80;99.90
8939;DHT22;4504;48.810;9.172;2023-04-01T06:57:11;9.90;99.90
8939;DHT22;4504;48.810;9.172;2023-04-01T06:59:42;9.90;99.90
8939;DHT22;4504;48.810;9.172;2023-04-01T07:02:21;9.90;99.90
8939;DHT22;4504;48.810;9.172;2023-04-01T07:04:51;10.00;99.90
8939;DHT22;4504;48.810;9.172;2023-04-01T07:07:27;9.90;99.90
8939;DHT22;4504;48.810;9.172;2023-04-01T07:10:02;9.90;99.90
8939;DHT22;4504;48.810;9.172;2023-04-01T07:12:39;9.90;99.90
8939;DHT22;4504;48.810;9.172;2023-04-01T07:15:32;9.90;99.90
8939;DHT22;4504;48.810;9.172;2023-04-01T07:18:05;10.00;99.90
8939;DHT22;4504;48.810;9.172;2023-04-01T07:20:37;10.00;99.90
8939;DHT22;4504;48.810;9.172;2023-04-01T07:23:06;10.00;99.90
8939;DHT22;4504;48.810;9.172;2023-04-01T07:25:56;10.00;99.90
8939;DHT22;4504;48.810;9.172;2023-04-01T07:28:30;10.10;99.90
8939;DHT22;4504;48.810;9.172;2023-04-01T07:31:14;10.00;99.90
8939;DHT22;4504;48.810;9.172;2023-04-01T07:33:45;9.90;99.90
8939;DHT22;4504;48.810;9.172;2023-04-01T07:36:21;10.00;99.90
8939;DHT22;4504;48.810;9.172;2023-04-01T07:39:01;10.00;99.90
8939;DHT22;4504;48.810;9.172;2023-04-01T07:41:53;10.00;99.90
8939;DHT22;4504;48.810;9.172;2023-04-01T07:44:31;10.00;99.90
8939;DHT22;4504;48.810;9.172;2023-04-01T07:47:09;10.00;99.90
8939;DHT22;4504;48.810;9.172;2023-04-01T07:49:45;10.00;99.90
8939;DHT22;4504;48.810;9.172;2023-04-01T07:52:17;10.00;99.90
8939;DHT22;4504;48.810;9.172;2023-04-01T07:54:55;10.00;99.90
8939;DHT22;4504;48.810;9.172;2023-04-01T07:57:28;10.10;99.90
8939;DHT22;4504;48.810;9.172;2023-04-01T08:00:03;10.10;99.90
8939;DHT22;4504;48.810;9.172;2023-04-01T08:02:58;10.10;99.90
8939;DHT22;4504;48.810;9.172;2023-04-01T08:05:36;10.10;99.90
8939;DHT22;4504;48.810;9.172;2023-04-01T08:08:11;10.10;99.90
8939;DHT22;4504;48.810;9.172;2023-04-01T08:11:07;10.20;99.90
8939;DHT22;4504;48.810;9.172;2023-04-01T08:14:03;10.30;99.90
8939;DHT22;4504;48.810;9.172;2023-04-01T08:16:46;10.20;99.90
8939;DHT22;4504;48.810;9.172;2023-04-01T08:19:37;10.20;99.90
8939;DHT22;4504;48.810;9.172;2023-04-01T08:22:11;10.20;99.90
8939;DHT22;4504;48.810;9.172;2023-04-01T08:24:42;10.40;99.90
8939;DHT22;4504;48.810;9.172;2023-04-01T08:27:15;10.30;99.90
8939;DHT22;4504;48.810;9.172;2023-04-01T08:29:50;10.30;99.90
8939;DHT22;4504;48.810;9.172;2023-04-01T08:32:25;10.30;99.90
8939;DHT22;4504;48.810;9.172;2023-04-01T08:35:00;10.30;99.90
8939;DHT22;4504;48.810;9.172;2023-04-01T08:37:37;10.30;99.90
8939;DHT22;4504;48.810;9.172;2023-04-01T08:40:33;10.30;99.90
8939;DHT22;4504;48.810;9.172;2023-04-01T08:43:09;10.20;99.90
8939;DHT22;4504;48.810;9.172;2023-04-01T08:46:00;10.10;99.90
8939;DHT22;4504;48.810;9.172;2023-04-01T08:48:55;10.10;99.90
8939;DHT22;4504;48.810;9.172;2023-04-01T08:51:52;10.10;99.90
8939;DHT22;4504;48.810;9.172;2023-04-01T08:54:37;9.90;99.90
8939;DHT22;4504;48.810;9.172;2023-04-01T08:57:13;9.90;99.90
8939;DHT22;4504;48.810;9.172;2023-04-01T09:00:13;9.80;99.90
8939;DHT22;4504;48.810;9.172;2023-04-01T09:03:41;9.70;99.90
8939;DHT22;4504;48.810;9.172;2023-04-01T09:06:33;9.70;99.90
8939;DHT22;4504;48.810;9.172;2023-04-01T09:09:22;9.70;99.90
8939;DHT22;4504;48.810;9.172;2023-04-01T09:12:10;9.70;99.90
8939;DHT22;4504;48.810;9.172;2023-04-01T09:15:12;9.70;99.90
8939;DHT22;4504;48.810;9.172;2023-04-01T09:21:06;9.70;99.90
8939;DHT22;4504;48.810;9.172;2023-04-01T09:23:47;9.70;99.90
8939;DHT22;4504;48.810;9.172;2023-04-01T09:26:34;9.80;99.90
8939;DHT22;4504;48.810;9.172;2023-04-01T09:29:17;9.80;99.90
8939;DHT22;4504;48.810;9.172;2023-04-01T09:32:10;9.90;99.90
8939;DHT22;4504;48.810;9.172;2023-04-01T09:34:54;9.90;99.90
8939;DHT22;4504;48.810;9.172;2023-04-01T09:37:35;10.00;99.90
8939;DHT22;4504;48.810;9.172;2023-04-01T09:40:18;10.10;99.90
8939;DHT22;4504;48.810;9.172;2023-04-01T09:43:26;10.10;99.90
8939;DHT22;4504;48.810;9.172;2023-04-01T09:46:14;10.10;99.90
8939;DHT22;4504;48.810;9.172;2023-04-01T09:51:42;10.10;99.90
8939;DHT22;4504;48.810;9.172;2023-04-01T09:54:22;10.10;99.90
8939;DHT22;4504;48.810;9.172;2023-04-01T09:57:22;10.10;99.90
8939;DHT22;4504;48.810;9.172;2023-04-01T10:03:48;10.10;99.90
8939;DHT22;4504;48.810;9.172;2023-04-01T10:16:47;10.20;99.90
8939;DHT22;4504;48.810;9.172;2023-04-01T10:22:58;10.30;99.90
8939;DHT22;4504;48.810;9.172;2023-04-01T10:26:06;10.50;99.90
8939;DHT22;4504;48.810;9.172;2023-04-01T10:29:00;10.40;99.90
8939;DHT22;4504;48.810;9.172;2023-04-01T10:31:47;10.50;99.90
8939;DHT22;4504;48.810;9.172;2023-04-01T10:37:32;10.60;99.90
8939;DHT22;4504;48.810;9.172;2023-04-01T10:40:36;10.60;99.90
8939;DHT22;4504;48.810;9.172;2023-04-01T10:43:51;10.50;99.90
8939;DHT22;4504;48.810;9.172;2023-04-01T10:47:09;10.50;99.90
8939;DHT22;4504;48.810;9.172;2023-04-01T10:49:49;10.50;99.90
8939;DHT22;4504;48.810;9.172;2023-04-01T10:53:00;10.60;99.90
8939;DHT22;4504;48.810;9.172;2023-04-01T10:56:19;10.60;99.90
8939;DHT22;4504;48.810;9.172;2023-04-01T11:02:57;10.70;99.90
8939;DHT22;4504;48.810;9.172;2023-04-01T11:06:24;10.60;99.90
8939;DHT22;4504;48.810;9.172;2023-04-01T11:09:21;10.70;99.90
8939;DHT22;4504;48.810;9.172;2023-04-01T11:15:50;10.80;99.90
8939;DHT22;4504;48.810;9.172;2023-04-01T11:18:56;10.90;99.90
8939;DHT22;4504;48.810;9.172;2023-04-01T11:34:07;11.10;99.90
8939;DHT22;4504;48.810;9.172;2023-04-01T11:36:45;11.10;99.90
8939;DHT22;4504;48.810;9.172;2023-04-01T11:39:29;11.20;99.90
8939;DHT22;4504;48.810;9.172;2023-04-01T11:42:35;11.30;99.90
8939;DHT22;4504;48.810;9.172;2023-04-01T11:45:34;11.30;99.90
8939;DHT22;4504;48.810;9.172;2023-04-01T11:48:36;11.50;99.90
8939;DHT22;4504;48.810;9.172;2023-04-01T11:51:21;11.50;99.90
8939;DHT22;4504;48.810;9.172;2023-04-01T11:53:57;11.50;99.90
8939;DHT22;4504;48.810;9.172;2023-04-01T11:56:40;11.50;99.90
8939;DHT22;4504;48.810;9.172;2023-04-01T12:02:16;11.50;99.90
8939;DHT22;4504;48.810;9.172;2023-04-01T12:05:03;11.40;99.90
8939;DHT22;4504;48.810;9.172;2023-04-01T12:07:50;11.30;99.90
8939;DHT22;4504;48.810;9.172;2023-04-01T12:10:21;11.20;99.90
8939;DHT22;4504;48.810;9.172;2023-04-01T12:12:59;11.20;99.90
8939;DHT22;4504;48.810;9.172;2023-04-01T12:15:35;11.20;99.90
8939;DHT22;4504;48.810;9.172;2023-04-01T12:18:13;11.20;99.90
8939;DHT22;4504;48.810;9.172;2023-04-01T12:20:49;11.20;99.90
8939;DHT22;4504;48.810;9.172;2023-04-01T12:23:33;11.10;99.90
8939;DHT22;4504;48.810;9.172;2023-04-01T12:26:39;11.10;99.90
8939;DHT22;4504;48.810;9.172;2023-04-01T12:29:21;11.00;99.90
8939;DHT22;4504;48.810;9.172;2023-04-01T12:31:55;11.10;99.90
8939;DHT22;4504;48.810;9.172;2023-04-01T12:34:52;11.10;99.90
8939;DHT22;4504;48.810;9.172;2023-04-01T12:37:33;11.10;99.90
8939;DHT22;4504;48.810;9.172;2023-04-01T12:40:20;11.10;99.90
8939;DHT22;4504;48.810;9.172;2023-04-01T12:42:59;11.20;99.90
8939;DHT22;4504;48.810;9.172;2023-04-01T12:45:31;11.30;99.90
8939;DHT22;4504;48.810;9.172;2023-04-01T12:51:28;11.40;99.90
8939;DHT22;4504;48.810;9.172;2023-04-01T12:57:26;11.40;99.90
8939;DHT22;4504;48.810;9.172;2023-04-01T13:00:09;11.40;99.90
8939;DHT22;4504;48.810;9.172;2023-04-01T13:02:50;11.40;99.90
8939;DHT22;4504;48.810;9.172;2023-04-01T13:05:39;11.40;99.90
8939;DHT22;4504;48.810;9.172;2023-04-01T13:08:30;11.40;99.90
8939;DHT22;4504;48.810;9.172;2023-04-01T13:11:09;11.50;99.90
8939;DHT22;4504;48.810;9.172;2023-04-01T13:14:10;11.60;99.90
8939;DHT22;4504;48.810;9.172;2023-04-01T13:16:45;11.60;99.90
8939;DHT22;4504;48.810;9.172;2023-04-01T13:19:19;11.60;99.90
8939;DHT22;4504;48.810;9.172;2023-04-01T13:21:54;11.50;99.90
8939;DHT22;4504;48.810;9.172;2023-04-01T13:24:33;11.50;99.90
8939;DHT22;4504;48.810;9.172;2023-04-01T13:27:09;11.50;99.90
8939;DHT22;4504;48.810;9.172;2023-04-01T13:29:43;11.50;99.90
8939;DHT22;4504;48.810;9.172;2023-04-01T13:32:19;11.50;99.90
8939;DHT22;4504;48.810;9.172;2023-04-01T13:35:00;11.40;99.90
8939;DHT22;4504;48.810;9.172;2023-04-01T13:37:43;11.50;99.90
8939;DHT22;4504;48.810;9.172;2023-04-01T13:40:26;11.50;99.90
8939;DHT22;4504;48.810;9.172;2023-04-01T13:42:57;11.60;99.90
8939;DHT22;4504;48.810;9.172;2023-04-01T13:45:34;11.70;99.90
8939;DHT22;4504;48.810;9.172;2023-04-01T13:48:25;11.70;99.90
8939;DHT22;4504;48.810;9.172;2023-04-01T13:56:58;11.70;99.90
8939;DHT22;4504;48.810;9.172;2023-04-01T13:59:44;11.70;99.90
8939;DHT22;4504;48.810;9.172;2023-04-01T14:02:37;11.80;99.90
8939;DHT22;4504;48.810;9.172;2023-04-01T14:08:17;11.70;99.90
8939;DHT22;4504;48.810;9.172;2023-04-01T14:10:53;11.70;99.90
8939;DHT22;4504;48.810;9.172;2023-04-01T14:13:28;11.60;99.90
8939;DHT22;4504;48.810;9.172;2023-04-01T14:16:14;11.50;99.90
8939;DHT22;4504;48.810;9.172;2023-04-01T14:18:59;11.40;99.90
8939;DHT22;4504;48.810;9.172;2023-04-01T14:21:33;11.40;99.90
8939;DHT22;4504;48.810;9.172;2023-04-01T14:24:23;11.40;99.90
8939;DHT22;4504;48.810;9.172;2023-04-01T14:27:20;11.40;99.90
8939;DHT22;4504;48.810;9.172;2023-04-01T14:30:14;11.40;99.90
8939;DHT22;4504;48.810;9.172;2023-04-01T14:32:49;11.30;99.90
8939;DHT22;4504;48.810;9.172;2023-04-01T14:35:33;11.30;99.90
8939;DHT22;4504;48.810;9.172;2023-04-01T14:38:26;11.30;99.90
8939;DHT22;4504;48.810;9.172;2023-04-01T14:40:58;11.30;99.90
8939;DHT22;4504;48.810;9.172;2023-04-01T14:43:53;11.30;99.90
8939;DHT22;4504;48.810;9.172;2023-04-01T14:49:32;11.20;99.90
8939;DHT22;4504;48.810;9.172;2023-04-01T14:52:11;11.30;99.90
8939;DHT22;4504;48.810;9.172;2023-04-01T14:54:42;11.30;99.90
8939;DHT22;4504;48.810;9.172;2023-04-01T14:57:15;11.20;99.90
8939;DHT22;4504;48.810;9.172;2023-04-01T15:05:43;11.30;99.90
8939;DHT22;4504;48.810;9.172;2023-04-01T15:17:45;11.40;99.90
8939;DHT22;4504;48.810;9.172;2023-04-01T15:23:15;11.40;99.90
8939;DHT22;4504;48.810;9.172;2023-04-01T15:28:51;11.40;99.90
8939;DHT22;4504;48.810;9.172;2023-04-01T15:31:26;11.40;99.90
8939;DHT22;4504;48.810;9.172;2023-04-01T15:34:08;11.50;99.90
8939;DHT22;4504;48.810;9.172;2023-04-01T15:36:41;11.50;99.90
8939;DHT22;4504;48.810;9.172;2023-04-01T15:39:14;11.50;99.90
8939;DHT22;4504;48.810;9.172;2023-04-01T15:41:56;11.50;99.90
8939;DHT22;4504;48.810;9.172;2023-04-01T15:44:37;11.30;99.90
8939;DHT22;4504;48.810;9.172;2023-04-01T15:47:31;11.30;99.90
8939;DHT22;4504;48.810;9.172;2023-04-01T15:50:18;11.40;99.90
8939;DHT22;4504;48.810;9.172;2023-04-01T15:52:50;11.30;99.90
8939;DHT22;4504;48.810;9.172;2023-04-01T15:55:21;11.30;99.90
8939;DHT22;4504;48.810;9.172;2023-04-01T15:58:06;11.30;99.90
8939;DHT22;4504;48.810;9.172;2023-04-01T16:00:46;11.30;99.90
8939;DHT22;4504;48.810;9.172;2023-04-01T16:03:29;11.40;99.90
8939;DHT22;4504;48.810;9.172;2023-04-01T16:06:13;11.40;99.90
8939;DHT22;4504;48.810;9.172;2023-04-01T16:09:01;11.30;99.90
8939;DHT22;4504;48.810;9.172;2023-04-01T16:11:36;11.40;99.90
8939;DHT22;4504;48.810;9.172;2023-04-01T16:14:18;11.30;99.90
8939;DHT22;4504;48.810;9.172;2023-04-01T16:17:00;11.30;99.90
8939;DHT22;4504;48.810;9.172;2023-04-01T16:19:55;11.30;99.90
8939;DHT22;4504;48.810;9.172;2023-04-01T16:22:27;11.40;99.90
8939;DHT22;4504;48.810;9.172;2023-04-01T16:25:13;11.20;99.90
8939;DHT22;4504;48.810;9.172;2023-04-01T16:27:47;11.20;99.90
8939;DHT22;4504;48.810;9.172;2023-04-01T16:30:26;11.20;99.90
8939;DHT22;4504;48.810;9.172;2023-04-01T16:33:02;11.10;99.90
8939;DHT22;4504;48.810;9.172;2023-04-01T16:35:37;11.00;99.90
8939;DHT22;4504;48.810;9.172;2023-04-01T16:38:13;11.00;99.90
8939;DHT22;4504;48.810;9.172;2023-04-01T16:40:49;11.10;99.90
8939;DHT22;4504;48.810;9.172;2023-04-01T16:43:24;11.10;99.90
8939;DHT22;4504;48.810;9.172;2023-04-01T16:46:13;11.30;99.90
8939;DHT22;4504;48.810;9.172;2023-04-01T16:48:52;11.10;99.90
8939;DHT22;4504;48.810;9.172;2023-04-01T16:51:24;11.20;99.90
8939;DHT22;4504;48.810;9.172;2023-04-01T16:54:04;11.20;99.90
8939;DHT22;4504;48.810;9.172;2023-04-01T16:56:39;11.20;99.90
8939;DHT22;4504;48.810;9.172;2023-04-01T16:59:14;11.20;99.90
8939;DHT22;4504;48.810;9.172;2023-04-01T17:01:50;11.20;99.90
8939;DHT22;4504;48.810;9.172;2023-04-01T17:04:26;11.20;99.90
8939;DHT22;4504;48.810;9.172;2023-04-01T17:07:00;11.20;99.90
8939;DHT22;4504;48.810;9.172;2023-04-01T17:12:20;11.20;99.90
8939;DHT22;4504;48.810;9.172;2023-04-01T17:14:56;11.20;99.90
8939;DHT22;4504;48.810;9.172;2023-04-01T17:17:37;11.20;99.90
8939;DHT22;4504;48.810;9.172;2023-04-01T17:20:29;11.20;99.90
8939;DHT22;4504;48.810;9.172;2023-04-01T17:23:01;11.20;99.90
8939;DHT22;4504;48.810;9.172;2023-04-01T17:25:52;11.20;99.90
8939;DHT22;4504;48.810;9.172;2023-04-01T17:28:30;11.20;99.90
8939;DHT22;4504;48.810;9.172;2023-04-01T17:31:07;11.20;99.90
8939;DHT22;4504;48.810;9.172;2023-04-01T17:33:51;11.20;99.90
8939;DHT22;4504;48.810;9.172;2023-04-01T17:36:29;11.10;99.90
8939;DHT22;4504;48.810;9.172;2023-04-01T17:39:30;11.10;99.90
8939;DHT22;4504;48.810;9.172;2023-04-01T17:42:05;11.10;99.90
8939;DHT22;4504;48.810;9.172;2023-04-01T17:44:45;11.10;99.90
8939;DHT22;4504;48.810;9.172;2023-04-01T17:47:38;11.10;99.90
8939;DHT22;4504;48.810;9.172;2023-04-01T17:50:21;11.10;99.90
8939;DHT22;4504;48.810;9.172;2023-04-01T17:52:56;11.10;99.90
8939;DHT22;4504;48.810;9.172;2023-04-01T17:55:39;11.10;99.90
8939;DHT22;4504;48.810;9.172;2023-04-01T17:58:17;11.10;99.90
8939;DHT22;4504;48.810;9.172;2023-04-01T18:00:54;11.10;99.90
8939;DHT22;4504;48.810;9.172;2023-04-01T18:03:54;11.00;99.90
8939;DHT22;4504;48.810;9.172;2023-04-01T18:06:31;10.90;99.90
8939;DHT22;4504;48.810;9.172;2023-04-01T18:09:08;10.80;99.90
8939;DHT22;4504;48.810;9.172;2023-04-01T18:11:44;10.70;99.90
8939;DHT22;4504;48.810;9.172;2023-04-01T18:14:28;10.70;99.90
8939;DHT22;4504;48.810;9.172;2023-04-01T18:17:17;10.70;99.90
8939;DHT22;4504;48.810;9.172;2023-04-01T18:19:53;10.70;99.90
8939;DHT22;4504;48.810;9.172;2023-04-01T18:22:28;10.60;99.90
8939;DHT22;4504;48.810;9.172;2023-04-01T18:25:06;10.60;99.90
8939;DHT22;4504;48.810;9.172;2023-04-01T18:27:41;10.60;99.90
8939;DHT22;4504;48.810;9.172;2023-04-01T18:30:14;10.70;99.90
8939;DHT22;4504;48.810;9.172;2023-04-01T18:32:46;10.60;99.90
8939;DHT22;4504;48.810;9.172;2023-04-01T18:35:21;10.50;99.90
8939;DHT22;4504;48.810;9.172;2023-04-01T18:37:57;10.50;99.90
8939;DHT22;4504;48.810;9.172;2023-04-01T18:40:31;10.50;99.90
8939;DHT22;4504;48.810;9.172;2023-04-01T18:43:08;10.50;99.90
8939;DHT22;4504;48.810;9.172;2023-04-01T18:45:38;10.50;99.90
8939;DHT22;4504;48.810;9.172;2023-04-01T18:48:15;10.50;99.90
8939;DHT22;4504;48.810;9.172;2023-04-01T18:50:51;10.50;99.90
8939;DHT22;4504;48.810;9.172;2023-04-01T18:53:25;10.40;99.90